sensor_id;sensor_type;location;lat;lon;timestamp;P1;durP1;ratioP1;P2;durP2;ratioP2
14247;SDS011;7208;49.826;6.004;2022-12-24T00:01:53;11.80;;;2.47;;
14247;SDS011;7208;49.826;6.004;2022-12-24T00:04:19;5.27;;;1.43;;
14247;SDS011;7208;49.826;6.004;2022-12-24T00:06:45;7.07;;;1.50;;
14247;SDS011;7208;49.826;6.004;2022-12-24T00:09:11;7.60;;;1.57;;
14247;SDS011;7208;49.826;6.004;2022-12-24T00:11:37;7.60;;;1.83;;
14247;SDS011;7208;49.826;6.004;2022-12-24T00:14:03;4.93;;;1.70;;
14247;SDS011;7208;49.826;6.004;2022-12-24T00:16:29;16.37;;;2.70;;
14247;SDS011;7208;49.826;6.004;2022-12-24T00:18:55;4.70;;;1.67;;
14247;SDS011;7208;49.826;6.004;2022-12-24T00:21:21;6.00;;;2.00;;
14247;SDS011;7208;49.826;6.004;2022-12-24T00:23:47;8.50;;;2.20;;
14247;SDS011;7208;49.826;6.004;2022-12-24T00:26:13;6.30;;;1.90;;
14247;SDS011;7208;49.826;6.004;2022-12-24T00:28:40;6.20;;;1.87;;
14247;SDS011;7208;49.826;6.004;2022-12-24T00:31:07;7.03;;;1.80;;
14247;SDS011;7208;49.826;6.004;2022-12-24T00:33:33;10.80;;;2.03;;
14247;SDS011;7208;49.826;6.004;2022-12-24T00:35:59;9.37;;;2.10;;
14247;SDS011;7208;49.826;6.004;2022-12-24T00:38:25;4.93;;;1.67;;
14247;SDS011;7208;49.826;6.004;2022-12-24T00:40:51;9.30;;;2.20;;
14247;SDS011;7208;49.826;6.004;2022-12-24T00:43:17;6.63;;;1.67;;
14247;SDS011;7208;49.826;6.004;2022-12-24T00:45:43;8.27;;;1.70;;
14247;SDS011;7208;49.826;6.004;2022-12-24T00:48:09;7.00;;;1.87;;
14247;SDS011;7208;49.826;6.004;2022-12-24T00:50:35;5.03;;;2.10;;
14247;SDS011;7208;49.826;6.004;2022-12-24T00:53:01;8.10;;;1.60;;
14247;SDS011;7208;49.826;6.004;2022-12-24T00:55:27;7.47;;;2.00;;
14247;SDS011;7208;49.826;6.004;2022-12-24T00:57:53;5.67;;;1.80;;
14247;SDS011;7208;49.826;6.004;2022-12-24T01:00:19;11.63;;;2.33;;
14247;SDS011;7208;49.826;6.004;2022-12-24T01:02:45;9.80;;;3.40;;
14247;SDS011;7208;49.826;6.004;2022-12-24T01:05:11;11.50;;;2.03;;
14247;SDS011;7208;49.826;6.004;2022-12-24T01:07:38;4.07;;;1.33;;
14247;SDS011;7208;49.826;6.004;2022-12-24T01:10:04;7.17;;;1.87;;
14247;SDS011;7208;49.826;6.004;2022-12-24T01:12:31;5.20;;;1.63;;
14247;SDS011;7208;49.826;6.004;2022-12-24T01:14:57;9.37;;;1.80;;
14247;SDS011;7208;49.826;6.004;2022-12-24T01:17:23;10.87;;;2.03;;
14247;SDS011;7208;49.826;6.004;2022-12-24T01:19:49;10.20;;;1.93;;
14247;SDS011;7208;49.826;6.004;2022-12-24T01:22:15;8.23;;;1.73;;
14247;SDS011;7208;49.826;6.004;2022-12-24T01:24:41;9.00;;;2.83;;
14247;SDS011;7208;49.826;6.004;2022-12-24T01:27:07;9.35;;;2.65;;
14247;SDS011;7208;49.826;6.004;2022-12-24T01:29:34;8.40;;;2.07;;
14247;SDS011;7208;49.826;6.004;2022-12-24T01:32:00;9.43;;;2.17;;
14247;SDS011;7208;49.826;6.004;2022-12-24T01:34:26;11.60;;;2.33;;
14247;SDS011;7208;49.826;6.004;2022-12-24T01:36:52;9.00;;;2.20;;
14247;SDS011;7208;49.826;6.004;2022-12-24T01:39:18;12.30;;;2.53;;
14247;SDS011;7208;49.826;6.004;2022-12-24T01:41:44;10.43;;;3.03;;
14247;SDS011;7208;49.826;6.004;2022-12-24T01:44:30;8.18;;;2.30;;
14247;SDS011;7208;49.826;6.004;2022-12-24T01:49:25;5.10;;;1.60;;
14247;SDS011;7208;49.826;6.004;2022-12-24T01:51:52;6.73;;;2.03;;
14247;SDS011;7208;49.826;6.004;2022-12-24T01:56:48;6.83;;;1.50;;
14247;SDS011;7208;49.826;6.004;2022-12-24T01:59:16;6.77;;;1.97;;
14247;SDS011;7208;49.826;6.004;2022-12-24T02:01:44;5.17;;;1.43;;
14247;SDS011;7208;49.826;6.004;2022-12-24T02:04:12;9.20;;;1.97;;
14247;SDS011;7208;49.826;6.004;2022-12-24T02:06:40;5.47;;;1.53;;
14247;SDS011;7208;49.826;6.004;2022-12-24T02:09:07;10.47;;;1.77;;
14247;SDS011;7208;49.826;6.004;2022-12-24T02:11:33;11.10;;;1.97;;
14247;SDS011;7208;49.826;6.004;2022-12-24T02:14:01;8.17;;;2.23;;
14247;SDS011;7208;49.826;6.004;2022-12-24T02:16:34;7.37;;;2.03;;
14247;SDS011;7208;49.826;6.004;2022-12-24T02:31:58;4.13;;;1.80;;
14247;SDS011;7208;49.826;6.004;2022-12-24T02:36:54;7.13;;;1.83;;
14247;SDS011;7208;49.826;6.004;2022-12-24T02:39:23;6.73;;;2.20;;
14247;SDS011;7208;49.826;6.004;2022-12-24T02:41:52;7.23;;;2.00;;
14247;SDS011;7208;49.826;6.004;2022-12-24T02:44:51;8.60;;;2.23;;
14247;SDS011;7208;49.826;6.004;2022-12-24T02:47:19;9.30;;;2.27;;
14247;SDS011;7208;49.826;6.004;2022-12-24T02:49:46;8.27;;;2.00;;
14247;SDS011;7208;49.826;6.004;2022-12-24T02:54:54;15.20;;;2.97;;
14247;SDS011;7208;49.826;6.004;2022-12-24T03:00:11;6.67;;;2.17;;
14247;SDS011;7208;49.826;6.004;2022-12-24T03:10:19;9.13;;;2.43;;
14247;SDS011;7208;49.826;6.004;2022-12-24T03:12:51;6.53;;;2.10;;
14247;SDS011;7208;49.826;6.004;2022-12-24T03:15:20;14.60;;;3.40;;
14247;SDS011;7208;49.826;6.004;2022-12-24T03:17:48;8.00;;;2.00;;
14247;SDS011;7208;49.826;6.004;2022-12-24T03:20:16;13.87;;;2.37;;
14247;SDS011;7208;49.826;6.004;2022-12-24T03:22:43;12.80;;;2.10;;
14247;SDS011;7208;49.826;6.004;2022-12-24T03:25:09;5.37;;;2.10;;
14247;SDS011;7208;49.826;6.004;2022-12-24T03:27:36;13.77;;;2.60;;
14247;SDS011;7208;49.826;6.004;2022-12-24T03:30:03;13.13;;;2.70;;
14247;SDS011;7208;49.826;6.004;2022-12-24T03:32:30;10.67;;;2.93;;
14247;SDS011;7208;49.826;6.004;2022-12-24T03:34:56;12.03;;;2.60;;
14247;SDS011;7208;49.826;6.004;2022-12-24T03:37:23;12.13;;;2.73;;
14247;SDS011;7208;49.826;6.004;2022-12-24T03:39:49;12.67;;;2.77;;
14247;SDS011;7208;49.826;6.004;2022-12-24T03:42:15;10.77;;;2.43;;
14247;SDS011;7208;49.826;6.004;2022-12-24T03:44:41;6.93;;;2.87;;
14247;SDS011;7208;49.826;6.004;2022-12-24T03:47:07;15.57;;;3.13;;
14247;SDS011;7208;49.826;6.004;2022-12-24T03:49:33;9.07;;;2.77;;
14247;SDS011;7208;49.826;6.004;2022-12-24T03:51:59;15.83;;;3.10;;
14247;SDS011;7208;49.826;6.004;2022-12-24T03:54:25;12.77;;;2.77;;
14247;SDS011;7208;49.826;6.004;2022-12-24T03:56:51;13.67;;;2.80;;
14247;SDS011;7208;49.826;6.004;2022-12-24T03:59:17;15.43;;;2.77;;
14247;SDS011;7208;49.826;6.004;2022-12-24T04:01:43;14.50;;;2.50;;
14247;SDS011;7208;49.826;6.004;2022-12-24T04:04:09;8.00;;;2.60;;
14247;SDS011;7208;49.826;6.004;2022-12-24T04:06:35;12.03;;;3.13;;
14247;SDS011;7208;49.826;6.004;2022-12-24T04:09:01;10.70;;;2.67;;
14247;SDS011;7208;49.826;6.004;2022-12-24T04:11:29;12.63;;;2.60;;
14247;SDS011;7208;49.826;6.004;2022-12-24T04:13:55;10.53;;;2.40;;
14247;SDS011;7208;49.826;6.004;2022-12-24T04:16:21;9.83;;;3.20;;
14247;SDS011;7208;49.826;6.004;2022-12-24T04:18:47;19.30;;;2.93;;
14247;SDS011;7208;49.826;6.004;2022-12-24T04:21:13;14.93;;;2.60;;
14247;SDS011;7208;49.826;6.004;2022-12-24T04:23:40;10.13;;;2.47;;
14247;SDS011;7208;49.826;6.004;2022-12-24T04:26:07;13.13;;;3.30;;
14247;SDS011;7208;49.826;6.004;2022-12-24T04:28:34;12.97;;;2.47;;
14247;SDS011;7208;49.826;6.004;2022-12-24T04:31:07;16.20;;;3.20;;
14247;SDS011;7208;49.826;6.004;2022-12-24T04:33:33;11.90;;;2.93;;
14247;SDS011;7208;49.826;6.004;2022-12-24T04:36:00;11.43;;;2.57;;
14247;SDS011;7208;49.826;6.004;2022-12-24T04:38:27;7.50;;;2.73;;
14247;SDS011;7208;49.826;6.004;2022-12-24T04:40:59;13.40;;;3.17;;
14247;SDS011;7208;49.826;6.004;2022-12-24T04:43:27;14.00;;;3.00;;
14247;SDS011;7208;49.826;6.004;2022-12-24T04:45:53;14.00;;;2.50;;
14247;SDS011;7208;49.826;6.004;2022-12-24T04:48:19;14.37;;;2.50;;
14247;SDS011;7208;49.826;6.004;2022-12-24T04:50:45;10.57;;;2.47;;
14247;SDS011;7208;49.826;6.004;2022-12-24T04:53:11;11.37;;;2.60;;
14247;SDS011;7208;49.826;6.004;2022-12-24T04:55:42;12.33;;;2.80;;
14247;SDS011;7208;49.826;6.004;2022-12-24T04:58:08;12.57;;;2.67;;
14247;SDS011;7208;49.826;6.004;2022-12-24T05:00:34;12.07;;;2.67;;
14247;SDS011;7208;49.826;6.004;2022-12-24T05:03:00;14.47;;;3.20;;
14247;SDS011;7208;49.826;6.004;2022-12-24T05:05:26;11.50;;;2.80;;
14247;SDS011;7208;49.826;6.004;2022-12-24T05:07:52;11.83;;;2.80;;
14247;SDS011;7208;49.826;6.004;2022-12-24T05:10:18;16.27;;;3.63;;
14247;SDS011;7208;49.826;6.004;2022-12-24T05:12:44;12.17;;;3.20;;
14247;SDS011;7208;49.826;6.004;2022-12-24T05:15:10;14.33;;;2.90;;
14247;SDS011;7208;49.826;6.004;2022-12-24T05:17:36;11.87;;;2.63;;
14247;SDS011;7208;49.826;6.004;2022-12-24T05:20:02;12.00;;;2.83;;
14247;SDS011;7208;49.826;6.004;2022-12-24T05:22:28;11.23;;;3.10;;
14247;SDS011;7208;49.826;6.004;2022-12-24T05:25:13;10.60;;;3.17;;
14247;SDS011;7208;49.826;6.004;2022-12-24T05:28:14;16.80;;;2.73;;
14247;SDS011;7208;49.826;6.004;2022-12-24T05:30:41;11.27;;;3.07;;
14247;SDS011;7208;49.826;6.004;2022-12-24T05:33:07;12.30;;;3.03;;
14247;SDS011;7208;49.826;6.004;2022-12-24T05:35:33;10.30;;;3.87;;
14247;SDS011;7208;49.826;6.004;2022-12-24T05:37:59;16.17;;;3.03;;
14247;SDS011;7208;49.826;6.004;2022-12-24T05:40:24;14.00;;;3.97;;
14247;SDS011;7208;49.826;6.004;2022-12-24T05:42:51;16.70;;;3.50;;
14247;SDS011;7208;49.826;6.004;2022-12-24T05:45:17;20.20;;;3.27;;
14247;SDS011;7208;49.826;6.004;2022-12-24T05:47:43;7.73;;;2.63;;
14247;SDS011;7208;49.826;6.004;2022-12-24T05:50:09;21.03;;;4.13;;
14247;SDS011;7208;49.826;6.004;2022-12-24T05:52:35;12.27;;;3.07;;
14247;SDS011;7208;49.826;6.004;2022-12-24T05:55:01;21.90;;;4.07;;
14247;SDS011;7208;49.826;6.004;2022-12-24T05:57:27;16.03;;;3.00;;
14247;SDS011;7208;49.826;6.004;2022-12-24T05:59:53;12.40;;;3.13;;
14247;SDS011;7208;49.826;6.004;2022-12-24T06:02:19;14.83;;;3.00;;
14247;SDS011;7208;49.826;6.004;2022-12-24T06:04:45;17.53;;;3.70;;
14247;SDS011;7208;49.826;6.004;2022-12-24T06:07:11;16.93;;;2.80;;
14247;SDS011;7208;49.826;6.004;2022-12-24T06:09:36;13.13;;;3.67;;
14247;SDS011;7208;49.826;6.004;2022-12-24T06:12:03;14.63;;;2.77;;
14247;SDS011;7208;49.826;6.004;2022-12-24T06:14:29;18.67;;;3.60;;
14247;SDS011;7208;49.826;6.004;2022-12-24T06:16:55;12.77;;;3.57;;
14247;SDS011;7208;49.826;6.004;2022-12-24T06:19:21;16.83;;;3.97;;
14247;SDS011;7208;49.826;6.004;2022-12-24T06:21:47;14.93;;;2.93;;
14247;SDS011;7208;49.826;6.004;2022-12-24T06:24:13;17.83;;;3.20;;
14247;SDS011;7208;49.826;6.004;2022-12-24T06:26:39;17.83;;;3.10;;
14247;SDS011;7208;49.826;6.004;2022-12-24T06:29:05;18.00;;;3.77;;
14247;SDS011;7208;49.826;6.004;2022-12-24T06:31:31;12.33;;;3.67;;
14247;SDS011;7208;49.826;6.004;2022-12-24T06:33:57;14.97;;;3.03;;
14247;SDS011;7208;49.826;6.004;2022-12-24T06:36:24;9.47;;;3.03;;
14247;SDS011;7208;49.826;6.004;2022-12-24T06:38:50;14.33;;;3.33;;
14247;SDS011;7208;49.826;6.004;2022-12-24T06:41:17;12.87;;;3.57;;
14247;SDS011;7208;49.826;6.004;2022-12-24T06:43:44;12.03;;;2.87;;
14247;SDS011;7208;49.826;6.004;2022-12-24T06:46:10;14.90;;;2.80;;
14247;SDS011;7208;49.826;6.004;2022-12-24T06:48:36;9.70;;;2.70;;
14247;SDS011;7208;49.826;6.004;2022-12-24T06:51:02;16.00;;;3.40;;
14247;SDS011;7208;49.826;6.004;2022-12-24T06:53:28;13.77;;;3.70;;
14247;SDS011;7208;49.826;6.004;2022-12-24T06:56:04;22.13;;;3.87;;
14247;SDS011;7208;49.826;6.004;2022-12-24T06:58:31;12.37;;;2.83;;
14247;SDS011;7208;49.826;6.004;2022-12-24T07:00:59;13.90;;;3.33;;
14247;SDS011;7208;49.826;6.004;2022-12-24T07:03:25;6.47;;;2.53;;
14247;SDS011;7208;49.826;6.004;2022-12-24T07:05:52;12.97;;;3.33;;
14247;SDS011;7208;49.826;6.004;2022-12-24T07:08:18;14.27;;;3.17;;
14247;SDS011;7208;49.826;6.004;2022-12-24T07:10:44;11.57;;;3.10;;
14247;SDS011;7208;49.826;6.004;2022-12-24T07:13:10;13.87;;;4.20;;
14247;SDS011;7208;49.826;6.004;2022-12-24T07:15:36;12.43;;;3.40;;
14247;SDS011;7208;49.826;6.004;2022-12-24T07:18:02;15.47;;;2.83;;
14247;SDS011;7208;49.826;6.004;2022-12-24T07:20:28;12.70;;;2.63;;
14247;SDS011;7208;49.826;6.004;2022-12-24T07:22:54;12.70;;;2.63;;
14247;SDS011;7208;49.826;6.004;2022-12-24T07:25:20;8.63;;;2.40;;
14247;SDS011;7208;49.826;6.004;2022-12-24T07:27:46;13.87;;;2.63;;
14247;SDS011;7208;49.826;6.004;2022-12-24T07:30:12;11.53;;;2.47;;
14247;SDS011;7208;49.826;6.004;2022-12-24T07:32:38;10.40;;;2.97;;
14247;SDS011;7208;49.826;6.004;2022-12-24T07:35:04;11.50;;;2.17;;
14247;SDS011;7208;49.826;6.004;2022-12-24T07:37:30;9.97;;;2.47;;
14247;SDS011;7208;49.826;6.004;2022-12-24T07:39:56;15.30;;;2.50;;
14247;SDS011;7208;49.826;6.004;2022-12-24T07:42:22;14.17;;;2.70;;
14247;SDS011;7208;49.826;6.004;2022-12-24T07:44:48;16.40;;;2.67;;
14247;SDS011;7208;49.826;6.004;2022-12-24T07:47:14;13.07;;;2.97;;
14247;SDS011;7208;49.826;6.004;2022-12-24T07:49:40;9.17;;;2.57;;
14247;SDS011;7208;49.826;6.004;2022-12-24T07:52:06;5.50;;;2.33;;
14247;SDS011;7208;49.826;6.004;2022-12-24T07:54:32;11.97;;;2.67;;
14247;SDS011;7208;49.826;6.004;2022-12-24T07:56:59;16.30;;;3.13;;
14247;SDS011;7208;49.826;6.004;2022-12-24T07:59:25;9.27;;;2.50;;
14247;SDS011;7208;49.826;6.004;2022-12-24T08:01:51;17.83;;;3.87;;
14247;SDS011;7208;49.826;6.004;2022-12-24T08:04:17;13.90;;;3.00;;
14247;SDS011;7208;49.826;6.004;2022-12-24T08:06:43;15.77;;;4.50;;
14247;SDS011;7208;49.826;6.004;2022-12-24T08:09:09;11.53;;;3.23;;
14247;SDS011;7208;49.826;6.004;2022-12-24T08:11:35;11.13;;;2.83;;
14247;SDS011;7208;49.826;6.004;2022-12-24T08:14:01;22.73;;;3.90;;
14247;SDS011;7208;49.826;6.004;2022-12-24T08:16:27;15.73;;;3.40;;
14247;SDS011;7208;49.826;6.004;2022-12-24T08:18:53;16.20;;;3.40;;
14247;SDS011;7208;49.826;6.004;2022-12-24T08:21:19;13.60;;;4.20;;
14247;SDS011;7208;49.826;6.004;2022-12-24T08:23:45;12.97;;;2.83;;
14247;SDS011;7208;49.826;6.004;2022-12-24T08:26:11;12.70;;;3.63;;
14247;SDS011;7208;49.826;6.004;2022-12-24T08:28:37;18.90;;;3.47;;
14247;SDS011;7208;49.826;6.004;2022-12-24T08:31:04;12.23;;;3.07;;
14247;SDS011;7208;49.826;6.004;2022-12-24T08:33:30;13.80;;;3.17;;
14247;SDS011;7208;49.826;6.004;2022-12-24T08:35:56;19.17;;;3.47;;
14247;SDS011;7208;49.826;6.004;2022-12-24T08:38:22;19.30;;;4.47;;
14247;SDS011;7208;49.826;6.004;2022-12-24T08:40:49;19.57;;;3.97;;
14247;SDS011;7208;49.826;6.004;2022-12-24T08:43:16;11.93;;;2.93;;
14247;SDS011;7208;49.826;6.004;2022-12-24T08:45:42;16.00;;;3.90;;
14247;SDS011;7208;49.826;6.004;2022-12-24T08:48:08;13.97;;;3.77;;
14247;SDS011;7208;49.826;6.004;2022-12-24T08:50:37;19.10;;;3.73;;
14247;SDS011;7208;49.826;6.004;2022-12-24T08:53:03;19.63;;;3.63;;
14247;SDS011;7208;49.826;6.004;2022-12-24T08:55:29;15.47;;;3.53;;
14247;SDS011;7208;49.826;6.004;2022-12-24T08:57:55;14.50;;;2.80;;
14247;SDS011;7208;49.826;6.004;2022-12-24T09:00:21;15.73;;;2.93;;
14247;SDS011;7208;49.826;6.004;2022-12-24T09:02:47;9.63;;;3.50;;
14247;SDS011;7208;49.826;6.004;2022-12-24T09:05:13;10.03;;;2.80;;
14247;SDS011;7208;49.826;6.004;2022-12-24T09:07:39;11.33;;;3.20;;
14247;SDS011;7208;49.826;6.004;2022-12-24T09:10:15;18.37;;;4.23;;
14247;SDS011;7208;49.826;6.004;2022-12-24T09:12:41;12.87;;;2.90;;
14247;SDS011;7208;49.826;6.004;2022-12-24T09:15:07;15.83;;;3.47;;
14247;SDS011;7208;49.826;6.004;2022-12-24T09:17:34;10.73;;;2.70;;
14247;SDS011;7208;49.826;6.004;2022-12-24T09:20:00;11.17;;;3.90;;
14247;SDS011;7208;49.826;6.004;2022-12-24T09:22:26;8.70;;;2.70;;
14247;SDS011;7208;49.826;6.004;2022-12-24T09:24:53;15.73;;;3.50;;
14247;SDS011;7208;49.826;6.004;2022-12-24T09:27:20;9.93;;;4.13;;
14247;SDS011;7208;49.826;6.004;2022-12-24T09:29:46;11.17;;;3.30;;
14247;SDS011;7208;49.826;6.004;2022-12-24T09:32:12;19.07;;;3.80;;
14247;SDS011;7208;49.826;6.004;2022-12-24T09:34:37;12.00;;;2.87;;
14247;SDS011;7208;49.826;6.004;2022-12-24T09:37:04;10.90;;;2.80;;
14247;SDS011;7208;49.826;6.004;2022-12-24T09:39:30;15.10;;;3.03;;
14247;SDS011;7208;49.826;6.004;2022-12-24T09:42:06;9.17;;;2.27;;
14247;SDS011;7208;49.826;6.004;2022-12-24T09:47:15;10.23;;;2.37;;
14247;SDS011;7208;49.826;6.004;2022-12-24T09:49:45;10.87;;;2.53;;
14247;SDS011;7208;49.826;6.004;2022-12-24T09:52:13;8.57;;;2.30;;
14247;SDS011;7208;49.826;6.004;2022-12-24T09:54:43;8.83;;;3.40;;
14247;SDS011;7208;49.826;6.004;2022-12-24T09:57:14;12.23;;;2.93;;
14247;SDS011;7208;49.826;6.004;2022-12-24T09:59:42;7.00;;;2.37;;
14247;SDS011;7208;49.826;6.004;2022-12-24T10:02:16;8.67;;;2.53;;
14247;SDS011;7208;49.826;6.004;2022-12-24T10:04:43;7.37;;;2.10;;
14247;SDS011;7208;49.826;6.004;2022-12-24T10:10:21;6.87;;;2.10;;
14247;SDS011;7208;49.826;6.004;2022-12-24T10:20:38;9.20;;;2.20;;
14247;SDS011;7208;49.826;6.004;2022-12-24T10:28:16;12.80;;;2.50;;
14247;SDS011;7208;49.826;6.004;2022-12-24T10:30:43;10.27;;;2.97;;
14247;SDS011;7208;49.826;6.004;2022-12-24T10:33:17;10.37;;;2.80;;
14247;SDS011;7208;49.826;6.004;2022-12-24T10:35:45;14.57;;;3.60;;
14247;SDS011;7208;49.826;6.004;2022-12-24T10:38:12;15.13;;;3.23;;
14247;SDS011;7208;49.826;6.004;2022-12-24T10:40:42;7.70;;;2.40;;
14247;SDS011;7208;49.826;6.004;2022-12-24T10:43:16;9.97;;;2.37;;
14247;SDS011;7208;49.826;6.004;2022-12-24T10:45:46;10.50;;;2.67;;
14247;SDS011;7208;49.826;6.004;2022-12-24T10:48:15;11.17;;;2.40;;
14247;SDS011;7208;49.826;6.004;2022-12-24T10:50:55;12.13;;;2.20;;
14247;SDS011;7208;49.826;6.004;2022-12-24T10:53:30;16.73;;;2.90;;
14247;SDS011;7208;49.826;6.004;2022-12-24T10:56:01;18.27;;;3.80;;
14247;SDS011;7208;49.826;6.004;2022-12-24T10:58:28;12.97;;;2.80;;
14247;SDS011;7208;49.826;6.004;2022-12-24T11:00:54;11.57;;;3.13;;
14247;SDS011;7208;49.826;6.004;2022-12-24T11:03:21;16.00;;;3.03;;
14247;SDS011;7208;49.826;6.004;2022-12-24T11:06:01;8.33;;;2.87;;
14247;SDS011;7208;49.826;6.004;2022-12-24T11:08:28;11.20;;;2.23;;
14247;SDS011;7208;49.826;6.004;2022-12-24T11:13:24;11.27;;;2.50;;
14247;SDS011;7208;49.826;6.004;2022-12-24T11:15:59;11.70;;;3.30;;
14247;SDS011;7208;49.826;6.004;2022-12-24T11:18:26;14.07;;;2.63;;
14247;SDS011;7208;49.826;6.004;2022-12-24T11:20:52;9.43;;;2.37;;
14247;SDS011;7208;49.826;6.004;2022-12-24T11:23:18;10.80;;;2.63;;
14247;SDS011;7208;49.826;6.004;2022-12-24T11:25:48;14.20;;;3.33;;
14247;SDS011;7208;49.826;6.004;2022-12-24T11:28:20;10.47;;;2.50;;
14247;SDS011;7208;49.826;6.004;2022-12-24T11:33:45;13.50;;;2.43;;
14247;SDS011;7208;49.826;6.004;2022-12-24T11:36:11;15.90;;;3.30;;
14247;SDS011;7208;49.826;6.004;2022-12-24T11:38:38;9.30;;;2.33;;
14247;SDS011;7208;49.826;6.004;2022-12-24T11:41:08;12.90;;;3.13;;
14247;SDS011;7208;49.826;6.004;2022-12-24T11:43:39;13.67;;;3.23;;
14247;SDS011;7208;49.826;6.004;2022-12-24T11:46:19;9.20;;;3.20;;
14247;SDS011;7208;49.826;6.004;2022-12-24T11:48:46;19.63;;;3.30;;
14247;SDS011;7208;49.826;6.004;2022-12-24T11:51:23;12.20;;;3.47;;
14247;SDS011;7208;49.826;6.004;2022-12-24T11:54:23;12.13;;;3.00;;
14247;SDS011;7208;49.826;6.004;2022-12-24T11:56:46;11.20;;;3.60;;
14247;SDS011;7208;49.826;6.004;2022-12-24T11:59:25;7.53;;;2.53;;
14247;SDS011;7208;49.826;6.004;2022-12-24T12:01:54;8.23;;;1.97;;
14247;SDS011;7208;49.826;6.004;2022-12-24T12:04:32;10.03;;;2.90;;
14247;SDS011;7208;49.826;6.004;2022-12-24T12:07:21;10.57;;;2.73;;
14247;SDS011;7208;49.826;6.004;2022-12-24T12:09:50;13.27;;;2.93;;
14247;SDS011;7208;49.826;6.004;2022-12-24T12:12:21;11.37;;;2.80;;
14247;SDS011;7208;49.826;6.004;2022-12-24T12:14:54;15.53;;;4.77;;
14247;SDS011;7208;49.826;6.004;2022-12-24T12:20:29;14.00;;;3.20;;
14247;SDS011;7208;49.826;6.004;2022-12-24T12:25:05;12.73;;;3.40;;
14247;SDS011;7208;49.826;6.004;2022-12-24T12:27:45;13.37;;;3.23;;
14247;SDS011;7208;49.826;6.004;2022-12-24T12:30:16;19.83;;;2.90;;
14247;SDS011;7208;49.826;6.004;2022-12-24T12:33:26;12.47;;;3.13;;
14247;SDS011;7208;49.826;6.004;2022-12-24T12:35:33;17.47;;;2.83;;
14247;SDS011;7208;49.826;6.004;2022-12-24T12:38:01;11.20;;;3.03;;
14247;SDS011;7208;49.826;6.004;2022-12-24T12:40:37;14.13;;;3.77;;
14247;SDS011;7208;49.826;6.004;2022-12-24T12:43:13;13.80;;;2.67;;
14247;SDS011;7208;49.826;6.004;2022-12-24T12:45:52;11.90;;;3.33;;
14247;SDS011;7208;49.826;6.004;2022-12-24T12:48:29;14.00;;;3.30;;
14247;SDS011;7208;49.826;6.004;2022-12-24T12:50:57;10.83;;;3.07;;
14247;SDS011;7208;49.826;6.004;2022-12-24T12:58:46;9.30;;;2.43;;
14247;SDS011;7208;49.826;6.004;2022-12-24T13:01:34;5.20;;;1.67;;
14247;SDS011;7208;49.826;6.004;2022-12-24T13:14:33;4.83;;;1.47;;
14247;SDS011;7208;49.826;6.004;2022-12-24T13:22:02;9.47;;;2.67;;
14247;SDS011;7208;49.826;6.004;2022-12-24T13:24:29;4.50;;;1.90;;
14247;SDS011;7208;49.826;6.004;2022-12-24T13:27:06;10.37;;;2.30;;
14247;SDS011;7208;49.826;6.004;2022-12-24T13:29:39;7.87;;;2.13;;
14247;SDS011;7208;49.826;6.004;2022-12-24T13:34:51;5.10;;;2.60;;
14247;SDS011;7208;49.826;6.004;2022-12-24T13:48:02;15.03;;;2.77;;
14247;SDS011;7208;49.826;6.004;2022-12-24T13:50:47;8.83;;;2.30;;
14247;SDS011;7208;49.826;6.004;2022-12-24T13:53:21;10.67;;;2.27;;
14247;SDS011;7208;49.826;6.004;2022-12-24T13:55:50;7.93;;;2.07;;
14247;SDS011;7208;49.826;6.004;2022-12-24T13:58:17;7.10;;;2.13;;
14247;SDS011;7208;49.826;6.004;2022-12-24T14:00:56;13.50;;;2.83;;
14247;SDS011;7208;49.826;6.004;2022-12-24T14:05:51;6.63;;;2.10;;
14247;SDS011;7208;49.826;6.004;2022-12-24T14:11:04;12.50;;;3.10;;
14247;SDS011;7208;49.826;6.004;2022-12-24T14:16:03;10.97;;;2.37;;
14247;SDS011;7208;49.826;6.004;2022-12-24T14:18:30;10.77;;;2.17;;
14247;SDS011;7208;49.826;6.004;2022-12-24T14:20:58;11.03;;;2.53;;
14247;SDS011;7208;49.826;6.004;2022-12-24T14:23:34;6.57;;;2.60;;
14247;SDS011;7208;49.826;6.004;2022-12-24T14:26:02;12.83;;;2.33;;
14247;SDS011;7208;49.826;6.004;2022-12-24T14:28:35;10.83;;;2.70;;
14247;SDS011;7208;49.826;6.004;2022-12-24T14:31:04;11.43;;;2.87;;
14247;SDS011;7208;49.826;6.004;2022-12-24T14:33:31;11.13;;;3.10;;
14247;SDS011;7208;49.826;6.004;2022-12-24T14:35:57;6.57;;;2.97;;
14247;SDS011;7208;49.826;6.004;2022-12-24T14:38:24;6.20;;;2.37;;
14247;SDS011;7208;49.826;6.004;2022-12-24T14:41:04;10.17;;;4.20;;
14247;SDS011;7208;49.826;6.004;2022-12-24T14:46:05;8.77;;;2.60;;
14247;SDS011;7208;49.826;6.004;2022-12-24T14:51:26;11.83;;;3.00;;
14247;SDS011;7208;49.826;6.004;2022-12-24T14:54:06;10.17;;;2.80;;
14247;SDS011;7208;49.826;6.004;2022-12-24T14:56:35;14.23;;;2.53;;
14247;SDS011;7208;49.826;6.004;2022-12-24T14:59:12;11.30;;;2.53;;
14247;SDS011;7208;49.826;6.004;2022-12-24T15:01:39;12.00;;;2.77;;
14247;SDS011;7208;49.826;6.004;2022-12-24T15:06:35;11.23;;;2.63;;
14247;SDS011;7208;49.826;6.004;2022-12-24T15:09:01;15.00;;;3.07;;
14247;SDS011;7208;49.826;6.004;2022-12-24T15:11:29;14.03;;;3.77;;
14247;SDS011;7208;49.826;6.004;2022-12-24T15:13:56;12.70;;;3.00;;
14247;SDS011;7208;49.826;6.004;2022-12-24T15:16:30;12.47;;;3.73;;
14247;SDS011;7208;49.826;6.004;2022-12-24T15:18:58;6.40;;;3.03;;
14247;SDS011;7208;49.826;6.004;2022-12-24T15:21:28;11.10;;;3.00;;
14247;SDS011;7208;49.826;6.004;2022-12-24T15:23:55;10.93;;;3.20;;
14247;SDS011;7208;49.826;6.004;2022-12-24T15:26:31;10.97;;;3.30;;
14247;SDS011;7208;49.826;6.004;2022-12-24T15:29:00;12.10;;;3.60;;
14247;SDS011;7208;49.826;6.004;2022-12-24T15:31:28;11.97;;;3.37;;
14247;SDS011;7208;49.826;6.004;2022-12-24T15:33:55;8.97;;;3.10;;
14247;SDS011;7208;49.826;6.004;2022-12-24T15:36:25;15.90;;;3.20;;
14247;SDS011;7208;49.826;6.004;2022-12-24T15:38:52;17.00;;;3.90;;
14247;SDS011;7208;49.826;6.004;2022-12-24T15:41:26;13.73;;;3.37;;
14247;SDS011;7208;49.826;6.004;2022-12-24T15:43:53;11.73;;;3.37;;
14247;SDS011;7208;49.826;6.004;2022-12-24T15:46:21;15.88;;;5.20;;
14247;SDS011;7208;49.826;6.004;2022-12-24T15:48:47;9.47;;;3.33;;
14247;SDS011;7208;49.826;6.004;2022-12-24T15:51:19;7.57;;;3.50;;
14247;SDS011;7208;49.826;6.004;2022-12-24T15:53:46;13.52;;;4.57;;
14247;SDS011;7208;49.826;6.004;2022-12-24T15:56:26;15.00;;;4.17;;
14247;SDS011;7208;49.826;6.004;2022-12-24T15:59:09;17.90;;;4.37;;
14247;SDS011;7208;49.826;6.004;2022-12-24T16:01:35;16.50;;;5.80;;
14247;SDS011;7208;49.826;6.004;2022-12-24T16:04:09;15.23;;;4.57;;
14247;SDS011;7208;49.826;6.004;2022-12-24T16:09:31;18.90;;;4.17;;
14247;SDS011;7208;49.826;6.004;2022-12-24T16:11:57;19.10;;;4.30;;
14247;SDS011;7208;49.826;6.004;2022-12-24T16:14:24;10.97;;;4.27;;
14247;SDS011;7208;49.826;6.004;2022-12-24T16:16:50;16.17;;;4.30;;
14247;SDS011;7208;49.826;6.004;2022-12-24T16:19:25;15.37;;;4.57;;
14247;SDS011;7208;49.826;6.004;2022-12-24T16:21:53;11.00;;;4.27;;
14247;SDS011;7208;49.826;6.004;2022-12-24T16:24:23;16.57;;;4.40;;
14247;SDS011;7208;49.826;6.004;2022-12-24T16:26:50;13.47;;;4.67;;
14247;SDS011;7208;49.826;6.004;2022-12-24T16:29:16;18.87;;;4.30;;
14247;SDS011;7208;49.826;6.004;2022-12-24T16:31:50;18.60;;;4.30;;
14247;SDS011;7208;49.826;6.004;2022-12-24T16:34:17;10.37;;;4.53;;
14247;SDS011;7208;49.826;6.004;2022-12-24T16:36:44;12.73;;;4.57;;
14247;SDS011;7208;49.826;6.004;2022-12-24T16:39:15;25.07;;;5.37;;
14247;SDS011;7208;49.826;6.004;2022-12-24T16:41:47;10.23;;;4.60;;
14247;SDS011;7208;49.826;6.004;2022-12-24T16:44:32;11.53;;;4.67;;
14247;SDS011;7208;49.826;6.004;2022-12-24T16:46:58;22.70;;;4.77;;
14247;SDS011;7208;49.826;6.004;2022-12-24T16:49:25;19.83;;;4.97;;
14247;SDS011;7208;49.826;6.004;2022-12-24T16:51:52;10.63;;;4.60;;
14247;SDS011;7208;49.826;6.004;2022-12-24T16:54:18;18.03;;;5.77;;